Terminal Aerodrome Forecast
Issued by NWS Charleston, WV

Current Version | Previous Version | Graphics & Text | Print | Product List | Glossary On
Versions: 1 2 3 4 5 6 7 8 9 10 11 12 13 14 15 16 17 18 19 20 21
193
FTUS41 KRLX 041521 AAA
TAFBKW
TAF AMD
KBKW 041521Z 0415/0512 30006KT P6SM OVC015
     FM042000 31007KT P6SM BKN025
     FM050800 32006KT P6SM BKN015=

USA.gov is the U.S. government's official web portal to all federal, state and local government web resources and services.